Time;durP1;ratioP1;P1;durP2;ratioP2;P2;SDS_P1;SDS_P2;PMS_P1;PMS_P2;Temp;Humidity;BMP_temperature;BMP_pressure;BME280_temperature;BME280_humidity;BME280_pressure;Samples;Min_cycle;Max_cycle;Signal;HPM_P1;HPM_P2
2022/06/10 00:00:05;;;;;;;11.57;5.50;;;12.60;99.90;;;;;;5012554;28;20069;-65
2022/06/10 00:02:31;;;;;;;9.98;5.35;;;12.60;99.90;;;;;;5017722;28;20045;-65
2022/06/10 00:04:57;;;;;;;9.90;5.70;;;12.60;99.90;;;;;;5011509;28;20037;-65
2022/06/10 00:07:23;;;;;;;8.50;5.07;;;12.60;99.90;;;;;;5010618;28;20507;-65
2022/06/10 00:09:50;;;;;;;8.93;5.15;;;12.60;99.90;;;;;;5019540;28;20038;-65
2022/06/10 00:12:15;;;;;;;12.52;5.30;;;12.60;99.90;;;;;;5010112;28;20061;-64
2022/06/10 00:14:41;;;;;;;8.70;5.50;;;12.50;99.90;;;;;;5012202;28;20070;-64
2022/06/10 00:17:07;;;;;;;10.68;5.18;;;12.50;99.90;;;;;;5009674;28;20548;-65
2022/06/10 00:19:33;;;;;;;8.43;4.90;;;12.50;99.90;;;;;;5010540;28;20046;-65
2022/06/10 00:21:58;;;;;;;12.07;5.32;;;12.50;99.90;;;;;;5011138;28;20065;-65
2022/06/10 00:24:24;;;;;;;12.60;5.40;;;12.40;99.90;;;;;;5011231;28;20282;-64
2022/06/10 00:26:50;;;;;;;7.07;4.63;;;12.30;99.90;;;;;;5017421;28;20125;-65
2022/06/10 00:29:15;;;;;;;9.05;5.35;;;12.30;99.90;;;;;;5010962;28;20030;-64
2022/06/10 00:31:41;;;;;;;13.82;5.93;;;12.20;99.90;;;;;;5009668;28;20044;-65
2022/06/10 00:34:07;;;;;;;9.70;6.25;;;12.30;99.90;;;;;;5020703;28;20045;-65
2022/06/10 00:36:32;;;;;;;13.07;6.35;;;12.30;99.90;;;;;;5021258;28;20036;-65
2022/06/10 00:38:59;;;;;;;10.98;6.28;;;12.20;99.90;;;;;;5031365;28;20550;-64
2022/06/10 00:41:25;;;;;;;13.43;6.30;;;12.20;99.90;;;;;;5031071;28;20045;-65
2022/06/10 00:43:50;;;;;;;9.73;6.10;;;12.20;99.90;;;;;;5016950;28;20095;-64
2022/06/10 00:46:36;;;;;;;9.43;6.05;;;12.10;99.90;;;;;;5012817;28;20034;-64
2022/06/10 00:49:07;;;;;;;13.80;6.40;;;12.20;99.90;;;;;;5010568;28;20030;-65
2022/06/10 00:51:42;;;;;;;;;;;12.10;99.90;;;;;;5019168;28;20057;-65
2022/06/10 00:54:25;;;;;;;8.15;5.80;;;12.10;99.90;;;;;;5014050;28;20008;-65
2022/06/10 00:56:57;;;;;;;17.13;6.57;;;12.10;99.90;;;;;;5015810;28;20038;-65
2022/06/10 00:59:26;;;;;;;14.35;6.43;;;12.20;99.90;;;;;;5017806;28;20073;-65
2022/06/10 01:01:58;;;;;;;11.18;6.28;;;12.10;99.90;;;;;;5020387;28;20489;-65
2022/06/10 01:04:26;;;;;;;13.85;6.10;;;12.10;99.90;;;;;;5014731;28;20030;-65
2022/06/10 01:06:52;;;;;;;10.80;5.88;;;12.00;99.90;;;;;;5011406;28;20034;-65
2022/06/10 01:09:17;;;;;;;15.68;6.22;;;12.00;99.90;;;;;;5014532;28;20030;-65
2022/06/10 01:11:52;;;;;;;14.05;6.82;;;12.00;99.90;;;;;;5015020;28;20049;-65
2022/06/10 01:14:23;;;;;;;12.10;6.13;;;12.00;99.90;;;;;;5021639;28;20135;-65
2022/06/10 01:17:04;;;;;;;;;;;11.90;99.90;;;;;;5017942;28;20038;-65
2022/06/10 01:19:54;;;;;;;15.50;6.53;;;11.90;99.90;;;;;;5014336;28;19996;-64
2022/06/10 01:22:57;;;;;;;12.93;6.20;;;11.90;99.90;;;;;;5012489;28;20080;-65
2022/06/10 01:25:48;;;;;;;12.68;6.32;;;11.90;99.90;;;;;;5018301;28;20049;-65
2022/06/10 01:28:25;;;;;;;12.93;6.38;;;11.80;99.90;;;;;;5014619;28;20447;-65
2022/06/10 01:31:07;;;;;;;13.85;6.57;;;11.80;99.90;;;;;;5014389;28;20144;-65
2022/06/10 01:34:01;;;;;;;10.10;6.43;;;11.90;99.90;;;;;;5019943;28;20046;-65
2022/06/10 01:36:54;;;;;;;9.52;5.80;;;11.90;99.90;;;;;;5013839;28;20048;-65
2022/06/10 01:39:44;;;;;;;9.23;5.65;;;11.90;99.90;;;;;;5014011;28;20041;-64
2022/06/10 01:42:19;;;;;;;13.35;6.10;;;11.90;99.90;;;;;;5012914;28;20045;-65
2022/06/10 01:45:15;;;;;;;8.63;5.70;;;11.80;99.90;;;;;;5012973;28;20042;-65
2022/06/10 01:47:46;;;;;;;11.65;5.85;;;11.80;99.90;;;;;;5012144;28;20117;-65
2022/06/10 01:50:25;;;;;;;10.82;5.78;;;11.80;99.90;;;;;;5020993;28;20503;-65
2022/06/10 01:53:05;;;;;;;10.40;6.13;;;11.70;99.90;;;;;;5013099;28;20449;-64
2022/06/10 01:55:52;;;;;;;9.77;5.60;;;11.60;99.90;;;;;;5013530;28;20496;-64
2022/06/10 01:58:33;;;;;;;11.13;6.03;;;11.60;99.90;;;;;;5014131;28;20033;-65
2022/06/10 02:01:06;;;;;;;9.97;5.37;;;11.60;99.90;;;;;;5013331;28;20045;-64
2022/06/10 02:03:43;;;;;;;11.50;5.85;;;11.60;99.90;;;;;;5013029;28;20450;-65
2022/06/10 02:06:14;;;;;;;10.50;5.18;;;11.50;99.90;;;;;;5018296;28;20038;-64
2022/06/10 02:09:09;;;;;;;10.43;5.40;;;11.50;99.90;;;;;;5014120;28;20045;-65
2022/06/10 02:11:39;;;;;;;9.18;5.63;;;11.40;99.90;;;;;;5012655;28;20038;-65
2022/06/10 02:14:27;;;;;;;12.38;6.07;;;11.40;99.90;;;;;;5020251;28;20045;-65
2022/06/10 02:16:55;;;;;;;8.75;5.97;;;11.40;99.90;;;;;;5013901;28;20034;-64
2022/06/10 02:19:39;;;;;;;15.52;6.40;;;11.40;99.90;;;;;;5012622;28;20037;-64
2022/06/10 02:22:15;;;;;;;11.98;6.22;;;11.50;99.90;;;;;;5018811;28;20033;-65
2022/06/10 02:24:46;;;;;;;13.65;6.10;;;11.50;99.90;;;;;;5013477;28;20099;-65
2022/06/10 02:27:17;;;;;;;12.90;6.22;;;11.50;99.90;;;;;;5013805;28;20785;-65
2022/06/10 02:29:55;;;;;;;;;;;11.60;99.90;;;;;;5015071;28;20428;-65
2022/06/10 02:32:23;;;;;;;11.15;5.85;;;11.60;99.90;;;;;;5019380;28;19972;-65
2022/06/10 02:34:48;;;;;;;9.05;5.43;;;11.60;99.90;;;;;;5012525;28;20488;-65
2022/06/10 02:37:23;;;;;;;10.50;5.45;;;11.50;99.90;;;;;;5013099;28;20052;-65
2022/06/10 02:40:20;;;;;;;10.55;5.53;;;11.40;99.90;;;;;;5022992;28;20120;-64
2022/06/10 02:43:15;;;;;;;9.20;5.10;;;11.20;99.90;;;;;;5012063;28;20122;-64
2022/06/10 02:46:00;;;;;;;12.73;4.90;;;11.10;99.90;;;;;;5010568;28;20088;-64
2022/06/10 02:48:50;;;;;;;8.88;5.00;;;10.90;99.90;;;;;;5019267;28;20038;-65
2022/06/10 02:51:16;;;;;;;10.77;5.60;;;10.90;99.90;;;;;;5013058;28;20069;-65
2022/06/10 02:53:43;;;;;;;13.77;5.90;;;10.80;99.90;;;;;;5013322;28;20073;-65
2022/06/10 02:56:23;;;;;;;15.38;5.47;;;10.90;99.90;;;;;;5023489;28;20053;-64
2022/06/10 03:02:04;;;;;;;13.30;6.45;;;11.00;99.90;;;;;;5012524;28;20136;-63
2022/06/10 03:04:42;;;;;;;13.05;5.97;;;11.10;99.90;;;;;;5013846;28;20082;-64
2022/06/10 03:07:22;;;;;;;13.45;7.78;;;11.00;99.90;;;;;;5013106;28;20127;-64
2022/06/10 03:10:04;;;;;;;18.38;6.90;;;11.10;99.90;;;;;;5013127;28;20403;-64
2022/06/10 03:12:50;;;;;;;12.40;7.22;;;11.20;99.90;;;;;;5014476;28;20050;-64
2022/06/10 03:15:42;;;;;;;13.35;7.18;;;11.30;99.90;;;;;;5010887;28;20053;-64
2022/06/10 03:18:38;;;;;;;11.98;7.65;;;11.30;99.90;;;;;;5013039;28;20053;-64
2022/06/10 03:21:26;;;;;;;11.98;7.00;;;11.30;99.90;;;;;;5018824;28;20081;-64
2022/06/10 03:23:58;;;;;;;11.70;7.20;;;11.30;99.90;;;;;;5012699;28;20180;-64
2022/06/10 03:26:49;;;;;;;11.57;6.55;;;11.30;99.90;;;;;;5011051;28;20408;-64
2022/06/10 03:29:33;;;;;;;13.90;7.88;;;11.30;99.90;;;;;;5005622;28;20190;-64
2022/06/10 03:32:24;;;;;;;12.95;7.32;;;11.30;99.90;;;;;;5023087;28;20092;-65
2022/06/10 03:34:57;;;;;;;16.95;7.32;;;11.30;99.90;;;;;;5014963;28;20053;-66
2022/06/10 03:37:24;;;;;;;12.48;7.18;;;11.20;99.90;;;;;;5016751;28;20612;-65
2022/06/10 03:39:55;;;;;;;12.07;7.03;;;11.20;99.90;;;;;;5019848;28;20044;-66
2022/06/10 03:42:23;;;;;;;12.30;6.85;;;11.20;99.90;;;;;;5011942;28;20416;-65
2022/06/10 03:44:52;;;;;;;13.52;6.82;;;11.20;99.90;;;;;;5011206;28;20044;-63
2022/06/10 03:47:27;;;;;;;11.15;7.10;;;11.20;99.90;;;;;;5021321;28;20045;-65
2022/06/10 03:49:57;;;;;;;16.67;7.10;;;11.30;99.90;;;;;;5011309;28;20100;-65
2022/06/10 03:52:27;;;;;;;14.43;6.90;;;11.30;99.90;;;;;;5017267;28;20112;-66
2022/06/10 03:54:52;;;;;;;14.13;6.57;;;11.40;99.90;;;;;;5026187;28;20048;-66
2022/06/10 03:57:18;;;;;;;15.70;7.25;;;11.40;99.90;;;;;;5012657;28;20037;-66
2022/06/10 03:59:45;;;;;;;13.55;7.18;;;11.40;99.90;;;;;;5011602;28;20037;-65
2022/06/10 04:02:11;;;;;;;12.85;7.03;;;11.50;99.90;;;;;;5017353;28;20083;-66
2022/06/10 04:04:38;;;;;;;14.45;7.72;;;11.60;99.90;;;;;;5014251;28;20042;-66
2022/06/10 04:07:05;;;;;;;15.88;7.70;;;11.60;99.90;;;;;;5018001;28;20057;-66
2022/06/10 04:09:30;;;;;;;14.02;7.05;;;11.60;99.90;;;;;;5013186;28;20037;-65
2022/06/10 04:11:56;;;;;;;11.95;7.50;;;11.60;99.90;;;;;;5023392;28;20491;-65
2022/06/10 04:14:22;;;;;;;16.95;7.88;;;11.60;99.90;;;;;;5013592;28;20042;-65
2022/06/10 04:16:48;;;;;;;15.02;7.82;;;11.70;99.90;;;;;;5011017;28;20119;-66
2022/06/10 04:19:13;;;;;;;17.33;8.35;;;11.80;99.90;;;;;;5022851;28;20041;-65
2022/06/10 04:21:39;;;;;;;15.63;8.13;;;11.80;99.90;;;;;;5010248;28;20041;-66
2022/06/10 04:24:05;;;;;;;15.98;8.50;;;11.80;99.90;;;;;;5021334;28;20049;-65
2022/06/10 04:26:31;;;;;;;15.52;8.70;;;11.90;99.90;;;;;;5018505;28;20128;-66
2022/06/10 04:28:56;;;;;;;15.43;8.60;;;11.90;99.90;;;;;;5020157;28;20080;-65
2022/06/10 04:31:22;;;;;;;14.43;8.88;;;12.00;99.90;;;;;;5012985;28;20400;-66
2022/06/10 04:33:48;;;;;;;15.82;9.77;;;12.00;99.90;;;;;;5028105;23;20153;-66
2022/06/10 04:36:16;;;;;;;17.42;8.98;;;12.10;99.90;;;;;;5034315;28;20041;-65
2022/06/10 04:38:42;;;;;;;15.27;9.20;;;12.10;99.90;;;;;;5031337;28;20121;-66
2022/06/10 04:41:09;;;;;;;14.98;9.63;;;12.20;99.90;;;;;;5013176;28;20124;-65
2022/06/10 04:43:35;;;;;;;15.60;9.13;;;12.30;99.90;;;;;;5024528;28;20050;-66
2022/06/10 04:46:05;;;;;;;22.20;10.60;;;12.40;99.90;;;;;;5017258;28;20490;-66
2022/06/10 04:48:31;;;;;;;18.98;10.43;;;12.60;99.90;;;;;;5012184;28;20466;-66
2022/06/10 04:50:57;;;;;;;18.55;10.75;;;12.70;99.90;;;;;;5020535;28;20092;-66
2022/06/10 04:53:23;;;;;;;19.35;10.27;;;12.80;99.90;;;;;;5020715;28;20614;-66
2022/06/10 04:55:49;;;;;;;15.65;10.48;;;12.90;99.90;;;;;;5013366;28;20567;-66
2022/06/10 04:58:15;;;;;;;19.50;10.25;;;13.00;99.90;;;;;;5017078;28;20038;-66
2022/06/10 05:00:45;;;;;;;21.55;10.85;;;13.10;99.90;;;;;;5017257;28;20033;-66
2022/06/10 05:03:11;;;;;;;19.13;11.10;;;13.20;99.90;;;;;;5017983;28;20037;-64
2022/06/10 05:05:37;;;;;;;18.55;10.40;;;13.30;99.90;;;;;;5029111;28;20294;-66
2022/06/10 05:08:04;;;;;;;17.52;11.20;;;13.40;99.90;;;;;;5021210;28;20029;-66
2022/06/10 05:10:31;;;;;;;19.90;11.23;;;13.50;99.90;;;;;;5013399;28;20316;-65
2022/06/10 05:12:57;;;;;;;17.55;10.02;;;13.70;99.90;;;;;;5019049;28;20602;-66
2022/06/10 05:15:23;;;;;;;16.05;10.15;;;13.80;99.90;;;;;;5013363;28;20121;-66
2022/06/10 05:17:51;;;;;;;20.13;10.77;;;13.90;99.90;;;;;;5015568;28;20046;-66
2022/06/10 05:20:23;;;;;;;17.85;10.75;;;14.10;99.90;;;;;;5019632;28;20048;-65
2022/06/10 05:22:49;;;;;;;20.13;11.70;;;14.30;99.90;;;;;;5020472;28;20037;-65
2022/06/10 05:25:15;;;;;;;15.57;9.07;;;14.60;99.90;;;;;;5016927;28;20033;-65
2022/06/10 05:27:41;;;;;;;17.25;9.85;;;14.80;99.90;;;;;;5013139;28;20136;-65
2022/06/10 05:30:09;;;;;;;15.48;8.95;;;15.00;99.90;;;;;;5010045;28;20042;-66
2022/06/10 05:32:36;;;;;;;17.33;8.73;;;15.00;99.90;;;;;;5009565;28;20045;-65
2022/06/10 05:35:01;;;;;;;19.05;8.45;;;14.90;99.90;;;;;;5017786;28;20042;-65
2022/06/10 05:37:27;;;;;;;18.33;8.90;;;14.80;99.90;;;;;;5012822;28;20053;-66
2022/06/10 05:39:53;;;;;;;17.95;9.52;;;14.80;99.90;;;;;;5012800;28;20038;-66
2022/06/10 05:42:19;;;;;;;13.40;8.25;;;14.70;99.90;;;;;;5013551;28;20395;-66
2022/06/10 05:44:47;;;;;;;16.77;8.55;;;14.70;99.90;;;;;;5013600;28;20477;-65
2022/06/10 05:47:17;;;;;;;13.95;8.10;;;14.70;99.90;;;;;;5014834;28;20033;-66
2022/06/10 05:49:47;;;;;;;14.88;7.97;;;14.70;99.90;;;;;;5019311;28;20188;-66
2022/06/10 05:52:15;;;;;;;13.55;8.25;;;14.70;99.90;;;;;;5020137;28;20077;-66
2022/06/10 05:54:45;;;;;;;15.18;7.63;;;14.80;99.90;;;;;;5013980;28;20408;-66
2022/06/10 05:57:11;;;;;;;15.10;7.80;;;14.80;99.90;;;;;;5010640;28;20116;-65
2022/06/10 05:59:37;;;;;;;13.98;7.75;;;15.00;99.90;;;;;;5013754;28;20049;-65
2022/06/10 06:02:06;;;;;;;16.55;7.00;;;15.00;99.90;;;;;;5013941;28;20360;-65
2022/06/10 06:04:32;;;;;;;12.05;6.85;;;15.00;99.90;;;;;;5024847;28;20387;-65
2022/06/10 06:06:58;;;;;;;13.82;7.18;;;15.00;99.90;;;;;;5017856;28;20046;-66
2022/06/10 06:09:26;;;;;;;15.45;7.40;;;15.00;99.90;;;;;;5024142;28;20514;-66
2022/06/10 06:11:54;;;;;;;22.05;7.90;;;14.90;99.90;;;;;;5017723;28;20033;-66
2022/06/10 06:14:21;;;;;;;13.77;7.22;;;15.00;99.90;;;;;;5013508;28;20053;-65
2022/06/10 06:16:51;;;;;;;16.48;7.60;;;15.00;99.90;;;;;;5016884;28;20034;-65
2022/06/10 06:19:18;;;;;;;15.30;7.15;;;15.00;99.90;;;;;;5016059;28;20038;-65
2022/06/10 06:21:44;;;;;;;16.48;6.90;;;15.10;99.90;;;;;;5012084;28;20040;-65
2022/06/10 06:24:09;;;;;;;16.80;7.10;;;15.20;99.90;;;;;;5022643;28;20037;-65
2022/06/10 06:26:35;;;;;;;13.82;6.22;;;15.30;99.90;;;;;;5013212;28;20038;-65
2022/06/10 06:29:01;;;;;;;12.13;6.82;;;15.30;99.90;;;;;;5014146;28;20132;-65
2022/06/10 06:31:26;;;;;;;13.43;6.03;;;15.30;99.90;;;;;;5013619;28;20038;-65
2022/06/10 06:33:52;;;;;;;14.00;6.22;;;15.40;99.90;;;;;;5010863;28;20184;-66
2022/06/10 06:36:21;;;;;;;17.23;7.30;;;15.70;99.90;;;;;;5011989;28;20049;-64
2022/06/10 06:38:47;;;;;;;14.82;6.40;;;15.90;99.90;;;;;;5014361;28;20033;-63
2022/06/10 06:41:13;;;;;;;13.82;6.40;;;15.90;99.90;;;;;;5015300;28;20077;-64
2022/06/10 06:43:39;;;;;;;17.05;6.82;;;15.90;99.90;;;;;;5013461;28;20073;-65
2022/06/10 06:46:05;;;;;;;15.52;6.50;;;15.90;99.90;;;;;;5013880;28;20476;-65
2022/06/10 06:48:30;;;;;;;15.45;6.75;;;15.70;99.90;;;;;;5013832;28;20038;-65
2022/06/10 06:50:56;;;;;;;15.45;6.90;;;15.60;99.90;;;;;;5018772;28;20096;-64
2022/06/10 06:53:21;;;;;;;16.58;7.60;;;15.40;99.90;;;;;;5022756;28;20033;-64
2022/06/10 06:55:47;;;;;;;14.18;7.38;;;15.30;99.90;;;;;;5023335;28;20066;-64
2022/06/10 06:58:15;;;;;;;18.17;7.63;;;15.30;99.90;;;;;;5012880;28;20034;-65
2022/06/10 07:00:41;;;;;;;14.75;7.88;;;15.50;99.90;;;;;;5011918;28;20045;-64
2022/06/10 07:03:07;;;;;;;19.73;7.85;;;15.60;99.90;;;;;;5011554;28;20060;-64
2022/06/10 07:05:35;;;;;;;14.57;7.50;;;15.70;99.90;;;;;;5014159;28;20496;-64
2022/06/10 07:08:01;;;;;;;15.30;8.48;;;15.80;99.90;;;;;;5012374;28;20399;-63
2022/06/10 07:10:27;;;;;;;15.93;8.43;;;15.80;99.90;;;;;;5011988;28;20041;-64
2022/06/10 07:12:53;;;;;;;14.77;8.32;;;15.80;99.90;;;;;;5010404;28;20392;-64
2022/06/10 07:15:21;;;;;;;15.27;9.02;;;15.80;99.90;;;;;;5011817;28;20564;-64
2022/06/10 07:17:47;;;;;;;17.55;9.00;;;15.90;99.90;;;;;;5011732;28;20117;-63
2022/06/10 07:20:23;;;;;;;14.02;8.85;;;16.00;99.90;;;;;;5008949;28;20076;-63
2022/06/10 07:22:48;;;;;;;15.15;8.80;;;16.00;99.90;;;;;;5012416;28;20053;-63
2022/06/10 07:25:14;;;;;;;17.17;9.52;;;16.20;99.90;;;;;;5011686;28;20046;-63
2022/06/10 07:27:41;;;;;;;14.85;8.60;;;16.50;99.90;;;;;;5013372;28;20088;-63
2022/06/10 07:30:10;;;;;;;15.98;8.20;;;16.60;99.90;;;;;;5011172;28;20068;-63
2022/06/10 07:32:36;;;;;;;16.70;8.52;;;16.80;99.90;;;;;;5021756;28;20099;-65
2022/06/10 07:35:01;;;;;;;19.38;8.35;;;16.90;99.90;;;;;;5017166;28;20442;-63
2022/06/10 07:37:27;;;;;;;16.48;7.72;;;16.90;99.90;;;;;;5019724;28;20438;-64
2022/06/10 07:39:53;;;;;;;15.73;8.13;;;17.00;99.90;;;;;;5011544;28;20546;-64
2022/06/10 07:42:19;;;;;;;14.82;8.07;;;17.20;99.90;;;;;;5011718;28;20065;-64
2022/06/10 07:44:44;;;;;;;18.73;7.70;;;17.20;99.90;;;;;;5010724;28;20034;-64
2022/06/10 07:47:13;;;;;;;12.65;6.55;;;17.40;99.90;;;;;;5015433;28;20046;-65
2022/06/10 07:49:39;;;;;;;18.83;6.93;;;17.30;99.90;;;;;;5011070;28;20052;-65
2022/06/10 07:52:06;;;;;;;14.75;7.63;;;17.30;99.90;;;;;;5009586;28;20057;-65
2022/06/10 07:54:34;;;;;;;14.27;6.70;;;17.40;99.90;;;;;;5012010;28;20083;-65
2022/06/10 07:57:01;;;;;;;13.77;7.10;;;17.40;99.90;;;;;;5021837;28;20488;-66
2022/06/10 07:59:26;;;;;;;12.77;6.50;;;17.50;99.90;;;;;;5016348;28;20322;-66
2022/06/10 08:01:52;;;;;;;15.25;6.53;;;17.40;99.90;;;;;;5013168;28;20111;-66
2022/06/10 08:04:18;;;;;;;11.60;6.28;;;17.50;99.90;;;;;;5021943;28;20033;-65
2022/06/10 08:06:46;;;;;;;13.60;6.28;;;17.60;99.90;;;;;;5017373;28;20573;-66
2022/06/10 08:09:12;;;;;;;14.73;6.70;;;17.60;99.90;;;;;;5020755;28;20119;-65
2022/06/10 08:11:38;;;;;;;13.32;6.40;;;17.60;99.90;;;;;;5018743;28;20038;-68
2022/06/10 08:14:05;;;;;;;13.32;6.93;;;17.60;99.90;;;;;;5015728;28;20052;-66
2022/06/10 08:16:32;;;;;;;12.38;6.85;;;17.60;99.90;;;;;;5011794;28;20092;-66
2022/06/10 08:18:57;;;;;;;10.30;6.03;;;17.50;99.90;;;;;;5009399;28;20042;-66
2022/06/10 08:24:07;;;;;;;12.82;7.05;;;17.40;99.90;;;;;;5011789;28;20054;-67
2022/06/10 08:26:34;;;;;;;13.63;7.18;;;17.50;99.90;;;;;;5009426;28;20038;-66
2022/06/10 08:29:00;;;;;;;16.60;7.03;;;17.70;99.90;;;;;;5019372;28;20042;-67
2022/06/10 08:31:27;;;;;;;11.48;7.80;;;17.80;99.90;;;;;;5011087;28;20112;-67
2022/06/10 08:33:52;;;;;;;15.25;6.90;;;18.00;99.90;;;;;;5020336;28;20046;-67
2022/06/10 08:36:18;;;;;;;15.70;7.40;;;18.10;99.90;;;;;;5017783;28;20503;-67
2022/06/10 08:38:44;;;;;;;14.57;7.10;;;18.30;99.90;;;;;;5011986;28;20044;-65
2022/06/10 08:41:27;;;;;;;13.10;6.57;;;18.50;99.90;;;;;;5011362;28;20037;-66
2022/06/10 08:44:38;;;;;;;12.93;6.80;;;18.70;99.90;;;;;;5017680;28;20045;-65
2022/06/10 08:47:25;;;;;;;15.77;6.97;;;18.70;99.90;;;;;;4994022;28;20076;-65
2022/06/10 08:50:15;;;;;;;12.02;6.80;;;18.60;99.90;;;;;;5010838;28;20060;-67
2022/06/10 08:53:16;;;;;;;11.43;7.03;;;18.60;99.90;;;;;;5008212;28;20049;-66
2022/06/10 08:56:06;;;;;;;14.02;7.47;;;18.60;99.90;;;;;;5018056;28;20052;-66
2022/06/10 08:58:38;;;;;;;17.30;8.15;;;18.60;99.90;;;;;;5010766;28;20052;-66
2022/06/10 09:01:16;;;;;;;16.80;8.05;;;18.70;99.90;;;;;;5010211;28;20049;-66
2022/06/10 09:04:18;;;;;;;16.52;7.57;;;18.80;99.90;;;;;;5013402;28;20127;-66
2022/06/10 09:06:52;;;;;;;14.90;7.20;;;18.90;99.90;;;;;;5011059;28;20077;-67
2022/06/10 09:09:20;;;;;;;13.13;6.80;;;18.90;99.90;;;;;;5010106;28;20404;-66
2022/06/10 09:12:00;;;;;;;11.30;6.80;;;19.00;99.90;;;;;;5016465;28;20038;-66
2022/06/10 09:14:27;;;;;;;15.27;7.10;;;18.90;99.90;;;;;;5014330;28;20041;-66
2022/06/10 09:17:14;;;;;;;13.15;6.75;;;18.90;99.90;;;;;;5014242;28;20046;-66
2022/06/10 09:20:16;;;;;;;17.42;6.53;;;18.90;99.90;;;;;;5018664;28;20119;-66
2022/06/10 09:22:46;;;;;;;16.10;7.13;;;18.80;99.90;;;;;;5014035;28;20046;-67
2022/06/10 09:25:30;;;;;;;11.32;5.60;;;18.60;99.90;;;;;;5012999;28;20053;-66
2022/06/10 09:27:59;;;;;;;11.85;5.70;;;18.50;99.90;;;;;;5012605;28;20511;-66
2022/06/10 09:30:48;;;;;;;10.50;5.35;;;18.50;99.90;;;;;;5012938;28;20049;-66
2022/06/10 09:33:28;;;;;;;13.88;5.25;;;18.50;99.90;;;;;;5012901;28;20046;-67
2022/06/10 09:36:09;;;;;;;12.63;4.90;;;18.50;99.90;;;;;;5011059;28;20500;-67
2022/06/10 09:39:02;;;;;;;13.52;5.15;;;18.60;99.90;;;;;;5011083;28;20057;-66
2022/06/10 09:41:28;;;;;;;14.50;5.30;;;18.60;99.90;;;;;;5012973;28;20100;-67
2022/06/10 09:43:59;;;;;;;12.07;5.00;;;18.70;99.90;;;;;;5012998;28;20042;-66
2022/06/10 09:46:43;;;;;;;11.27;5.63;;;18.70;99.90;;;;;;5014567;28;20049;-65
2022/06/10 09:49:20;;;;;;;13.80;5.47;;;18.80;99.90;;;;;;5014680;28;20042;-64
2022/06/10 09:52:11;;;;;;;14.57;5.70;;;18.90;99.90;;;;;;5013784;28;20049;-66
2022/06/10 09:55:00;;;;;;;11.15;5.13;;;19.00;99.90;;;;;;5017307;28;20108;-64
2022/06/10 09:57:43;;;;;;;10.90;5.30;;;19.00;99.90;;;;;;5014450;28;20041;-64
2022/06/10 10:00:28;;;;;;;10.98;5.32;;;19.10;99.90;;;;;;5013591;28;20554;-65
2022/06/10 10:03:18;;;;;;;13.52;5.55;;;19.30;99.90;;;;;;5013901;28;20069;-67
2022/06/10 10:06:05;;;;;;;12.65;5.65;;;19.40;99.90;;;;;;5013267;28;20037;-62
2022/06/10 10:08:50;;;;;;;15.85;5.88;;;19.60;99.90;;;;;;5019060;28;20038;-69
2022/06/10 10:11:35;;;;;;;14.13;5.25;;;19.90;99.90;;;;;;5020247;28;20034;-66
2022/06/10 10:14:24;;;;;;;11.65;5.18;;;20.20;99.90;;;;;;5013857;28;20049;-63
2022/06/10 10:17:01;;;;;;;10.43;5.10;;;20.50;99.90;;;;;;5018874;28;20046;-64
2022/06/10 10:19:42;;;;;;;10.63;4.55;;;20.50;99.90;;;;;;5012621;28;20590;-69
2022/06/10 10:23:01;;;;;;;14.85;5.25;;;20.60;99.90;;;;;;5011393;28;20054;-64
2022/06/10 10:25:28;;;;;;;12.32;5.53;;;20.70;99.90;;;;;;5015196;28;20065;-64
2022/06/10 10:27:55;;;;;;;10.07;5.43;;;20.90;99.90;;;;;;5012270;28;20575;-64
2022/06/10 10:30:23;;;;;;;9.25;5.78;;;21.20;99.90;;;;;;5016448;28;20118;-67
2022/06/10 10:33:21;;;;;;;16.10;5.80;;;21.40;99.90;;;;;;5081626;23;20041;-69
2022/06/10 10:35:51;;;;;;;11.82;5.47;;;21.20;99.90;;;;;;5237289;22;20057;-68
2022/06/10 10:38:34;;;;;;;11.18;6.45;;;21.10;99.90;;;;;;5849974;22;20017;-70
2022/06/10 10:41:11;;;;;;;13.10;6.43;;;21.20;99.90;;;;;;5644306;22;20037;-69
2022/06/10 10:54:07;;;;;;;10.10;6.07;;;22.00;99.90;;;;;;5707781;22;20576;-69
2022/06/10 10:56:37;;;;;;;11.57;6.25;;;22.10;99.90;;;;;;5032378;28;20033;-68
2022/06/10 10:59:05;;;;;;;10.45;5.40;;;21.90;99.90;;;;;;5040628;28;20108;-69
2022/06/10 11:01:46;;;;;;;12.65;7.03;;;22.00;99.90;;;;;;5033607;28;20091;-69
2022/06/10 11:04:26;;;;;;;14.35;5.68;;;22.20;99.90;;;;;;5028934;28;20073;-68
2022/06/10 13:21:15;;;;;;;11.77;4.45;;;22.70;99.90;;;;;;5113347;27;20396;-65
2022/06/10 13:23:49;;;;;;;12.18;4.63;;;23.10;99.90;;;;;;5110725;27;20071;-63
2022/06/10 13:26:19;;;;;;;6.85;4.20;;;23.20;99.90;;;;;;5115702;28;20047;-64
2022/06/10 13:28:46;;;;;;;8.48;4.03;;;23.00;99.90;;;;;;5118310;28;20039;-64
2022/06/10 13:34:19;;;;;;;9.68;4.55;;;22.80;99.90;;;;;;5029638;28;20064;-65
2022/06/10 13:37:11;;;;;;;12.57;4.53;;;22.90;99.90;;;;;;5000133;28;20467;-65
2022/06/10 13:39:39;;;;;;;12.10;4.80;;;23.40;99.90;;;;;;5041834;28;20037;-65
2022/06/10 13:42:05;;;;;;;11.90;4.97;;;23.40;99.90;;;;;;5035091;28;20463;-66
2022/06/10 13:44:43;;;;;;;9.02;4.70;;;23.50;99.90;;;;;;5041186;28;20050;-66
2022/06/10 13:48:00;;;;;;;9.23;4.70;;;23.60;99.90;;;;;;5047266;28;20073;-67
2022/06/10 13:53:38;;;;;;;9.18;4.70;;;23.70;99.90;;;;;;5047151;28;20253;-67
2022/06/10 13:56:07;;;;;;;11.40;4.93;;;23.40;99.10;;;;;;5046469;28;20112;-62
2022/06/10 13:58:36;;;;;;;10.07;5.10;;;23.10;99.90;;;;;;5049985;28;20064;-67
2022/06/10 14:01:05;;;;;;;6.95;4.25;;;22.90;99.90;;;;;;5049965;28;20045;-64
2022/06/10 14:03:34;;;;;;;13.93;4.53;;;22.60;99.90;;;;;;5051143;28;20636;-65
2022/06/10 14:06:11;;;;;;;11.77;4.75;;;22.30;99.90;;;;;;5045566;28;20045;-66
2022/06/10 14:08:54;;;;;;;7.75;4.80;;;22.20;99.90;;;;;;5040474;28;20075;-66
2022/06/10 14:11:23;;;;;;;9.98;4.68;;;22.10;99.90;;;;;;5040720;28;20033;-64
2022/06/10 14:14:02;;;;;;;9.70;4.95;;;22.50;99.90;;;;;;5045422;28;20041;-65
2022/06/10 14:16:31;;;;;;;10.43;5.18;;;22.70;99.90;;;;;;5045235;28;20048;-62
2022/06/10 14:19:00;;;;;;;13.07;5.05;;;22.80;99.90;;;;;;5043837;28;20056;-65
2022/06/10 14:21:26;;;;;;;11.00;5.82;;;22.70;99.90;;;;;;5036793;28;20041;-66
2022/06/10 14:24:19;;;;;;;14.40;5.20;;;22.70;99.90;;;;;;5050637;28;20056;-63
2022/06/10 14:26:55;;;;;;;8.95;4.95;;;22.70;99.90;;;;;;5029205;28;20507;-63
2022/06/10 14:29:35;;;;;;;7.80;5.00;;;22.70;99.90;;;;;;5027251;28;20120;-66
2022/06/10 14:32:04;;;;;;;12.52;5.30;;;22.70;99.90;;;;;;5032830;28;20045;-63
2022/06/10 14:34:29;;;;;;;10.35;5.20;;;22.70;99.90;;;;;;5013714;28;20045;-63
2022/06/10 14:37:05;;;;;;;8.25;4.88;;;22.60;99.90;;;;;;5032001;28;20122;-62
2022/06/10 14:39:33;;;;;;;9.95;5.07;;;22.40;99.90;;;;;;5032811;28;20398;-63
2022/06/10 14:42:23;;;;;;;11.85;5.53;;;22.30;99.90;;;;;;5032548;28;20041;-63
2022/06/10 14:44:55;;;;;;;12.75;5.70;;;22.10;99.90;;;;;;5029014;28;20044;-63
2022/06/10 14:47:33;;;;;;;10.82;5.00;;;22.00;99.90;;;;;;5042084;28;20120;-63
2022/06/10 14:50:04;;;;;;;12.85;6.22;;;21.90;99.90;;;;;;5047201;28;20114;-64
2022/06/10 14:52:40;;;;;;;10.63;5.95;;;21.80;99.90;;;;;;5027737;28;20512;-67
2022/06/10 14:55:16;;;;;;;12.90;5.90;;;21.70;99.90;;;;;;5032637;28;20059;-65
2022/06/10 14:57:53;;;;;;;10.82;5.95;;;21.70;99.90;;;;;;5050869;28;20116;-65
2022/06/10 15:00:20;;;;;;;10.10;5.53;;;21.70;99.90;;;;;;5026345;28;20697;-67
2022/06/10 15:02:46;;;;;;;13.57;6.10;;;21.70;99.90;;;;;;5031015;28;20485;-63
2022/06/10 15:07:57;;;;;;;11.40;5.70;;;21.90;99.90;;;;;;5014959;28;20049;-66
2022/06/10 15:10:23;;;;;;;9.30;5.72;;;22.50;99.90;;;;;;5028530;28;20041;-66
2022/06/10 15:12:49;;;;;;;9.52;5.85;;;23.30;99.90;;;;;;5031999;28;20044;-65
2022/06/10 15:15:17;;;;;;;14.00;5.80;;;24.50;99.90;;;;;;5028605;28;20059;-65
2022/06/10 15:17:44;;;;;;;13.40;5.63;;;24.80;99.90;;;;;;5026884;28;20060;-65
2022/06/10 15:20:10;;;;;;;7.43;5.07;;;24.30;99.90;;;;;;5029901;28;20037;-65
2022/06/10 15:22:42;;;;;;;12.15;5.50;;;23.90;99.90;;;;;;5044971;28;20055;-64
2022/06/10 15:25:26;;;;;;;10.65;5.88;;;23.50;99.90;;;;;;5019958;28;20077;-65
2022/06/10 15:27:52;;;;;;;11.23;5.10;;;23.10;99.90;;;;;;5022072;28;20067;-63
2022/06/10 15:30:21;;;;;;;9.80;5.00;;;22.90;99.90;;;;;;5028882;28;20507;-63
2022/06/10 15:32:48;;;;;;;11.07;5.15;;;22.80;99.90;;;;;;5028800;28;20051;-64
2022/06/10 15:41:02;;;;;;;8.60;4.20;;;22.70;99.90;;;;;;5039396;28;20045;-62
2022/06/10 15:43:28;;;;;;;10.57;3.22;;;22.90;99.90;;;;;;5045387;28;20041;-62
2022/06/10 15:45:54;;;;;;;8.65;3.40;;;23.90;99.90;;;;;;5044656;28;20960;-63
2022/06/10 15:48:19;;;;;;;8.35;3.38;;;24.30;99.90;;;;;;5042121;28;20120;-63
2022/06/10 15:50:49;;;;;;;6.88;3.60;;;24.20;99.90;;;;;;5050755;28;20051;-64